Rose Valley, Pennsylvania
Current Conditions -  °F | °C
As of 12:54 PM on Thursday 30 Oct 2014 (Local Time) from KPHL Reporting Station
Scattered Clouds Scattered Clouds  
Wind Chill: 58°   Ceiling: Unl
Heat Index: 58°   Visibility: 10mi
Dew Point: 39°   Wind: 8mph
Humidity: 49%   Direction: 340°NNW
Pressure: 30.02"   Gusts: NA
Location:  39.8901°N, 75.3702°W
Report Text: KPHL 301654Z 34007KT 10SM SCT042 SCT065 14/04 A3002 RMK AO2 SLP164 T01440039
Loading
Personal Weather Stations






























Interactive Weather Map
Tropical Storm Tracking
New forecast layout! Learn more

10-Day Weather Forecast

Advertisements
Track Severe Weather on mobile